createdAt,value
2022-10-02T00:01:38.391Z,5.33
2022-10-02T00:04:13.499Z,5.90
2022-10-02T00:06:49.536Z,5.60
2022-10-02T00:09:26.368Z,6.10
2022-10-02T00:11:59.182Z,6.23
2022-10-02T00:14:35.112Z,6.03
2022-10-02T00:17:04.859Z,6.93
2022-10-02T00:19:33.452Z,5.60
2022-10-02T00:22:25.178Z,7.00
2022-10-02T00:25:00.153Z,5.83
2022-10-02T00:27:41.629Z,5.33
2022-10-02T00:30:14.196Z,6.53
2022-10-02T00:32:53.807Z,6.00
2022-10-02T00:35:38.299Z,6.73
2022-10-02T00:38:17.563Z,5.83
2022-10-02T00:41:08.941Z,7.93
2022-10-02T00:43:44.847Z,7.20
2022-10-02T00:46:40.035Z,6.97
2022-10-02T00:49:26.485Z,6.30
2022-10-02T00:52:06.782Z,5.97
2022-10-02T00:54:57.549Z,6.13
2022-10-02T00:57:37.161Z,6.27
2022-10-02T01:00:09.884Z,6.90
2022-10-02T01:02:54.963Z,6.70
2022-10-02T01:05:23.944Z,6.33
2022-10-02T01:07:55.467Z,6.27
2022-10-02T01:10:26.864Z,6.53
2022-10-02T01:12:56.819Z,6.27
2022-10-02T01:15:30.639Z,5.80
2022-10-02T01:18:02.288Z,5.90
2022-10-02T01:20:36.830Z,7.10
2022-10-02T01:23:22.468Z,5.60
2022-10-02T01:25:52.601Z,5.97
2022-10-02T01:28:23.640Z,6.30
2022-10-02T01:30:56.588Z,5.73
2022-10-02T01:33:25.715Z,6.67
2022-10-02T01:35:54.435Z,6.93
2022-10-02T01:38:24.870Z,7.07
2022-10-02T01:40:54.811Z,6.70
2022-10-02T01:43:28.552Z,7.73
2022-10-02T01:46:16.513Z,5.57
2022-10-02T01:48:48.689Z,5.63
2022-10-02T01:51:44.962Z,7.07
2022-10-02T01:54:22.420Z,6.57
2022-10-02T01:56:59.539Z,6.27
2022-10-02T01:59:41.060Z,6.43
2022-10-02T02:02:18.851Z,7.17
2022-10-02T02:04:56.291Z,7.03
2022-10-02T02:07:35.762Z,6.93
2022-10-02T02:10:14.620Z,7.57
2022-10-02T02:12:50.339Z,8.50
2022-10-02T02:15:26.174Z,8.47
2022-10-02T02:17:58.954Z,7.90
2022-10-02T02:20:31.350Z,8.60
2022-10-02T02:23:06.255Z,7.77
2022-10-02T02:25:41.381Z,8.13
2022-10-02T02:28:13.718Z,9.93
2022-10-02T02:30:45.681Z,9.33
2022-10-02T02:33:19.577Z,9.53
2022-10-02T02:35:53.185Z,9.73
2022-10-02T02:38:27.925Z,11.67
2022-10-02T02:41:00.942Z,10.60
2022-10-02T02:43:34.108Z,10.73
2022-10-02T02:46:08.525Z,10.50
2022-10-02T02:48:41.332Z,9.70
2022-10-02T02:51:13.410Z,10.70
2022-10-02T02:53:46.191Z,9.90
2022-10-02T02:56:19.103Z,9.80
2022-10-02T02:58:53.124Z,9.07
2022-10-02T03:01:22.071Z,9.03
2022-10-02T03:03:50.634Z,10.20
2022-10-02T03:06:33.846Z,9.60
2022-10-02T03:09:03.415Z,10.57
2022-10-02T03:11:44.217Z,9.70
2022-10-02T03:14:52.190Z,8.73
2022-10-02T03:17:33.510Z,8.93
2022-10-02T03:20:12.026Z,9.13
2022-10-02T03:22:48.199Z,8.10
2022-10-02T03:25:21.887Z,8.40
2022-10-02T03:27:56.558Z,7.97
2022-10-02T03:30:27.250Z,7.97
2022-10-02T03:32:57.493Z,7.40
2022-10-02T03:35:27.069Z,7.13
2022-10-02T03:37:59.889Z,9.27
2022-10-02T03:40:28.856Z,10.50
2022-10-02T03:42:58.532Z,13.27
2022-10-02T03:45:51.633Z,11.60
2022-10-02T03:48:18.319Z,9.00
2022-10-02T03:50:47.504Z,8.63
2022-10-02T03:53:18.071Z,7.30
2022-10-02T03:55:50.752Z,7.33
2022-10-02T03:58:20.213Z,7.30
2022-10-02T04:00:58.643Z,8.47
2022-10-02T04:03:35.069Z,6.90
2022-10-02T04:06:07.367Z,6.87
2022-10-02T04:08:39.681Z,7.53
2022-10-02T04:11:15.119Z,6.87
2022-10-02T04:13:48.274Z,7.07
2022-10-02T04:16:21.672Z,7.20
2022-10-02T04:18:56.863Z,6.97
2022-10-02T04:21:37.258Z,6.83
2022-10-02T04:24:13.730Z,6.87
2022-10-02T04:26:48.904Z,6.47
2022-10-02T04:29:24.364Z,7.27
2022-10-02T04:31:59.124Z,6.87
2022-10-02T04:34:29.325Z,6.03
2022-10-02T04:37:12.529Z,6.97
2022-10-02T04:39:59.984Z,6.70
2022-10-02T04:42:39.886Z,7.97
2022-10-02T04:45:23.415Z,7.47
2022-10-02T04:48:27.824Z,7.53
2022-10-02T04:51:04.232Z,7.77
2022-10-02T04:54:00.763Z,7.83
2022-10-02T04:56:46.008Z,7.77
2022-10-02T04:59:26.033Z,7.50
2022-10-02T05:02:03.562Z,6.77
2022-10-02T05:05:04.143Z,7.83
2022-10-02T05:07:58.531Z,7.37
2022-10-02T05:10:48.098Z,7.53
2022-10-02T05:13:34.594Z,7.43
2022-10-02T05:16:18.211Z,7.87
2022-10-02T05:19:05.405Z,12.43
2022-10-02T05:22:04.953Z,9.60
2022-10-02T05:25:03.149Z,8.87
2022-10-02T05:27:50.319Z,8.07
2022-10-02T05:30:19.846Z,9.17
2022-10-02T05:33:06.004Z,7.70
2022-10-02T05:35:53.661Z,8.47
2022-10-02T05:38:37.844Z,8.33
2022-10-02T05:41:11.855Z,8.17
2022-10-02T05:43:50.223Z,8.20
2022-10-02T05:46:24.909Z,8.57
2022-10-02T05:49:00.301Z,8.90
2022-10-02T05:51:37.557Z,8.47
2022-10-02T05:54:16.478Z,8.07
2022-10-02T05:56:51.856Z,8.33
2022-10-02T05:59:30.251Z,12.00
2022-10-02T06:02:03.942Z,9.77
2022-10-02T06:04:38.364Z,7.43
2022-10-02T06:07:10.996Z,6.87
2022-10-02T06:09:46.747Z,7.70
2022-10-02T06:12:18.809Z,7.30
2022-10-02T06:14:53.980Z,6.63
2022-10-02T06:17:27.630Z,6.83
2022-10-02T06:20:03.653Z,6.33
2022-10-02T06:22:37.091Z,6.40
2022-10-02T06:25:14.093Z,6.80
2022-10-02T06:27:48.019Z,6.77
2022-10-02T06:30:18.722Z,6.30
2022-10-02T06:32:54.321Z,5.93
2022-10-02T06:35:36.135Z,6.23
2022-10-02T06:38:16.428Z,6.23
2022-10-02T06:40:54.099Z,7.00
2022-10-02T06:43:40.635Z,6.50
2022-10-02T06:46:23.004Z,6.10
2022-10-02T06:48:59.191Z,5.83
2022-10-02T06:51:38.517Z,5.20
2022-10-02T06:54:21.349Z,5.43
2022-10-02T06:57:10.773Z,6.00
2022-10-02T07:00:12.122Z,5.27
2022-10-02T07:03:17.168Z,5.33
2022-10-02T07:06:02.715Z,5.73
2022-10-02T07:08:43.402Z,4.90
2022-10-02T07:11:19.554Z,5.20
2022-10-02T07:14:10.121Z,5.13
2022-10-02T07:17:02.524Z,5.07
2022-10-02T07:19:44.599Z,6.03
2022-10-02T07:22:50.774Z,5.40
2022-10-02T07:25:50.726Z,5.30
2022-10-02T07:28:29.370Z,5.40
2022-10-02T07:31:07.282Z,5.80
2022-10-02T07:33:48.751Z,5.73
2022-10-02T07:36:27.869Z,5.57
2022-10-02T07:39:08.762Z,5.03
2022-10-02T07:42:15.551Z,5.30
2022-10-02T07:45:13.977Z,5.20
2022-10-02T07:48:05.989Z,5.37
2022-10-02T07:50:41.850Z,5.50
2022-10-02T07:53:18.209Z,5.57
2022-10-02T07:55:53.107Z,7.93
2022-10-02T07:58:31.372Z,15.27
2022-10-02T08:01:02.874Z,9.50
2022-10-02T08:03:37.490Z,7.77
2022-10-02T08:06:07.730Z,6.53
2022-10-02T08:08:40.902Z,6.27
2022-10-02T08:11:14.871Z,5.50
2022-10-02T08:13:48.380Z,5.20
2022-10-02T08:16:23.650Z,5.17
2022-10-02T08:18:58.252Z,5.40
2022-10-02T08:21:28.517Z,5.17
2022-10-02T08:24:01.683Z,4.80
2022-10-02T08:26:35.846Z,5.27
2022-10-02T08:29:12.367Z,5.60
2022-10-02T08:31:40.941Z,5.13
2022-10-02T08:34:18.470Z,4.90
2022-10-02T08:37:13.343Z,5.53
2022-10-02T08:40:23.645Z,5.20
2022-10-02T08:43:18.672Z,5.03
2022-10-02T08:46:29.340Z,5.30
2022-10-02T08:49:30.318Z,4.90
2022-10-02T08:52:53.001Z,5.60
2022-10-02T08:55:47.262Z,5.80
2022-10-02T08:58:51.665Z,5.70
2022-10-02T09:01:46.764Z,5.90
2022-10-02T09:04:46.856Z,6.30
2022-10-02T09:07:53.945Z,6.73
2022-10-02T09:10:50.457Z,8.67
2022-10-02T09:14:10.289Z,7.53
2022-10-02T09:16:59.887Z,8.60
2022-10-02T09:19:45.005Z,7.90
2022-10-02T09:22:48.298Z,7.87
2022-10-02T09:25:34.938Z,8.80
2022-10-02T09:28:44.756Z,7.87
2022-10-02T09:31:52.223Z,7.13
2022-10-02T09:34:51.290Z,7.13
2022-10-02T09:37:58.731Z,6.97
2022-10-02T09:41:03.309Z,6.80
2022-10-02T09:44:07.084Z,6.67
2022-10-02T09:47:12.798Z,5.03
2022-10-02T09:50:16.555Z,5.23
2022-10-02T09:53:25.079Z,5.33
2022-10-02T09:56:39.400Z,4.90
2022-10-02T09:59:37.099Z,4.90
2022-10-02T10:02:31.400Z,5.03
2022-10-02T10:05:34.066Z,4.83
2022-10-02T10:08:26.120Z,4.00
2022-10-02T10:11:14.323Z,3.57
2022-10-02T10:14:19.571Z,4.03
2022-10-02T10:17:39.519Z,3.30
2022-10-02T10:20:37.275Z,4.00
2022-10-02T10:23:28.619Z,3.87
2022-10-02T10:26:21.365Z,3.70
2022-10-02T10:29:17.249Z,3.23
2022-10-02T10:32:31.080Z,2.17
2022-10-02T10:35:31.556Z,3.20
2022-10-02T10:38:33.964Z,3.33
2022-10-02T10:41:24.736Z,3.33
2022-10-02T10:44:29.361Z,2.70
2022-10-02T10:47:34.150Z,3.17
2022-10-02T10:50:24.139Z,2.87
2022-10-02T10:53:17.809Z,2.77
2022-10-02T10:56:13.529Z,2.47
2022-10-02T10:59:01.043Z,2.47
2022-10-02T11:01:39.861Z,2.40
2022-10-02T11:04:39.589Z,3.20
2022-10-02T11:07:42.324Z,2.50
2022-10-02T11:10:30.823Z,2.90
2022-10-02T11:13:33.499Z,2.00
2022-10-02T11:16:30.039Z,2.17
2022-10-02T11:19:41.351Z,3.10
2022-10-02T11:22:42.520Z,2.20
2022-10-02T11:25:29.122Z,2.50
2022-10-02T11:28:30.499Z,2.30
2022-10-02T11:31:30.546Z,2.00
2022-10-02T11:34:22.388Z,2.17
2022-10-02T11:37:05.801Z,2.10
2022-10-02T11:40:03.323Z,1.60
2022-10-02T11:43:19.069Z,1.70
2022-10-02T11:46:17.216Z,1.77
2022-10-02T11:49:26.746Z,1.97
2022-10-02T11:52:31.616Z,1.83
2022-10-02T11:55:09.306Z,1.77
2022-10-02T11:57:50.315Z,1.87
2022-10-02T12:01:11.312Z,1.87
2022-10-02T12:03:53.207Z,1.70
2022-10-02T12:06:44.483Z,2.23
2022-10-02T12:09:28.200Z,2.13
2022-10-02T12:12:13.439Z,1.93
2022-10-02T12:14:52.953Z,1.70
2022-10-02T12:17:46.147Z,1.93
2022-10-02T12:20:39.456Z,1.97
2022-10-02T12:23:46.405Z,2.23
2022-10-02T12:26:42.696Z,1.80
2022-10-02T12:29:17.245Z,1.73
2022-10-02T12:31:54.947Z,1.73
2022-10-02T12:34:49.031Z,2.13
2022-10-02T12:37:22.312Z,2.30
2022-10-02T12:40:02.081Z,2.20
2022-10-02T12:42:54.665Z,1.90
2022-10-02T12:45:53.592Z,2.00
2022-10-02T12:48:46.233Z,2.37
2022-10-02T12:51:37.014Z,2.47
2022-10-02T12:54:54.710Z,2.33
2022-10-02T12:57:58.994Z,1.97
2022-10-02T13:00:34.786Z,2.03
2022-10-02T13:03:41.470Z,2.40
2022-10-02T13:06:51.443Z,2.47
2022-10-02T13:09:35.549Z,2.30
2022-10-02T13:12:19.284Z,2.40
2022-10-02T13:15:08.255Z,2.40
2022-10-02T13:17:45.742Z,2.50
2022-10-02T13:20:27.622Z,1.73
2022-10-02T13:23:07.602Z,1.67
2022-10-02T13:25:46.948Z,2.00
2022-10-02T13:28:44.314Z,2.23
2022-10-02T13:31:23.162Z,2.60
2022-10-02T13:34:08.325Z,2.53
2022-10-02T13:36:52.984Z,2.10
2022-10-02T13:39:39.349Z,2.83
2022-10-02T13:42:27.186Z,2.30
2022-10-02T13:45:04.497Z,2.03
2022-10-02T13:47:42.239Z,2.60
2022-10-02T13:50:26.073Z,1.80
2022-10-02T13:53:21.327Z,2.30
2022-10-02T13:55:55.654Z,2.60
2022-10-02T13:58:50.468Z,2.63
2022-10-02T14:01:33.466Z,2.80
2022-10-02T14:04:29.705Z,2.50
2022-10-02T14:07:09.900Z,2.90
2022-10-02T14:09:51.974Z,2.57
2022-10-02T14:12:30.200Z,2.20
2022-10-02T14:15:23.596Z,1.77
2022-10-02T14:18:26.458Z,2.00
2022-10-02T14:21:02.797Z,2.07
2022-10-02T14:23:52.162Z,1.80
2022-10-02T14:26:32.818Z,2.00
2022-10-02T14:29:18.923Z,1.60
2022-10-02T14:32:05.404Z,2.27
2022-10-02T14:35:09.685Z,2.13
2022-10-02T14:38:10.843Z,1.60
2022-10-02T14:40:51.422Z,1.93
2022-10-02T14:43:46.175Z,1.70
2022-10-02T14:46:28.980Z,1.60
2022-10-02T14:49:24.145Z,2.17
2022-10-02T14:52:24.015Z,1.93
2022-10-02T14:55:17.477Z,2.13
2022-10-02T14:58:18.680Z,2.43
2022-10-02T15:01:02.799Z,3.00
2022-10-02T15:04:01.276Z,2.40
2022-10-02T15:06:44.621Z,2.83
2022-10-02T15:09:21.377Z,3.43
2022-10-02T15:11:58.830Z,2.70
2022-10-02T15:14:37.392Z,1.83
2022-10-02T15:17:28.967Z,2.57
2022-10-02T15:20:07.960Z,2.80
2022-10-02T15:22:40.968Z,2.73
2022-10-02T15:25:18.439Z,2.10
2022-10-02T15:27:53.532Z,2.23
2022-10-02T15:30:24.325Z,1.93
2022-10-02T15:33:16.212Z,1.67
2022-10-02T15:36:26.694Z,2.10
2022-10-02T15:39:22.405Z,2.20
2022-10-02T15:42:04.274Z,1.77
2022-10-02T15:45:03.245Z,2.00
2022-10-02T15:47:49.415Z,1.77
2022-10-02T15:50:35.005Z,1.70
2022-10-02T15:53:28.537Z,1.83
2022-10-02T15:56:06.111Z,1.70
2022-10-02T15:59:01.791Z,1.93
2022-10-02T16:01:44.774Z,2.50
2022-10-02T16:04:26.623Z,2.10
2022-10-02T16:07:32.966Z,2.00
2022-10-02T16:10:21.512Z,2.10
2022-10-02T16:13:14.490Z,1.60
2022-10-02T16:15:54.135Z,2.00
2022-10-02T16:18:50.899Z,2.00
2022-10-02T16:21:44.998Z,1.27
2022-10-02T16:24:47.332Z,1.43
2022-10-02T16:27:53.836Z,1.50
2022-10-02T16:30:24.305Z,1.37
2022-10-02T16:33:20.252Z,1.70
2022-10-02T16:36:08.554Z,1.63
2022-10-02T16:38:51.632Z,1.27
2022-10-02T16:41:37.080Z,1.40
2022-10-02T16:44:26.277Z,1.67
2022-10-02T16:47:00.370Z,1.57
2022-10-02T16:49:35.770Z,1.40
2022-10-02T16:52:17.914Z,1.40
2022-10-02T16:54:52.807Z,1.77
2022-10-02T16:57:29.518Z,1.47
2022-10-02T17:00:06.790Z,1.30
2022-10-02T17:02:44.003Z,1.50
2022-10-02T17:05:25.919Z,1.70
2022-10-02T17:08:00.370Z,1.97
2022-10-02T17:10:41.549Z,1.70
2022-10-02T17:13:25.938Z,2.23
2022-10-02T17:16:01.510Z,1.30
2022-10-02T17:18:39.793Z,1.53
2022-10-02T17:21:17.518Z,1.67
2022-10-02T17:23:55.202Z,1.80
2022-10-02T17:26:33.604Z,1.73
2022-10-02T17:29:13.038Z,1.60
2022-10-02T17:31:52.435Z,1.80
2022-10-02T17:34:23.867Z,1.70
2022-10-02T17:37:08.026Z,2.10
2022-10-02T17:39:59.521Z,1.70
2022-10-02T17:42:41.868Z,2.07
2022-10-02T17:45:27.507Z,2.07
2022-10-02T17:48:28.109Z,2.00
2022-10-02T17:51:39.010Z,1.90
2022-10-02T17:54:51.195Z,2.03
2022-10-02T17:57:33.298Z,1.73
2022-10-02T18:00:24.768Z,1.67
2022-10-02T18:03:29.219Z,2.30
2022-10-02T18:06:15.088Z,2.10
2022-10-02T18:09:17.273Z,1.60
2022-10-02T18:12:01.188Z,1.67
2022-10-02T18:14:50.872Z,1.80
2022-10-02T18:17:29.311Z,2.10
2022-10-02T18:20:05.253Z,2.10
2022-10-02T18:22:58.650Z,2.10
2022-10-02T18:25:51.435Z,2.70
2022-10-02T18:28:37.258Z,3.07
2022-10-02T18:31:44.300Z,2.67
2022-10-02T18:34:31.731Z,2.60
2022-10-02T18:37:20.799Z,2.87
2022-10-02T18:40:07.610Z,3.00
2022-10-02T18:42:50.522Z,2.87
2022-10-02T18:45:37.876Z,3.00
2022-10-02T18:48:32.447Z,3.00
2022-10-02T18:51:21.353Z,3.40
2022-10-02T18:54:12.388Z,3.80
2022-10-02T18:57:00.839Z,3.30
2022-10-02T18:59:41.075Z,4.57
2022-10-02T19:02:27.645Z,3.70
2022-10-02T19:05:25.231Z,3.93
2022-10-02T19:08:02.320Z,4.30
2022-10-02T19:10:42.997Z,4.87
2022-10-02T19:13:26.431Z,4.93
2022-10-02T19:15:58.826Z,4.80
2022-10-02T19:18:29.519Z,5.90
2022-10-02T19:21:03.469Z,6.47
2022-10-02T19:23:37.199Z,8.70
2022-10-02T19:26:17.138Z,10.90
2022-10-02T19:28:51.230Z,13.17
2022-10-02T19:31:24.347Z,14.47
2022-10-02T19:33:55.627Z,15.80
2022-10-02T19:36:28.372Z,15.07
2022-10-02T19:39:01.741Z,14.43
2022-10-02T19:41:35.984Z,13.93
2022-10-02T19:44:18.869Z,13.50
2022-10-02T19:46:53.317Z,13.47
2022-10-02T19:49:25.640Z,12.90
2022-10-02T19:51:55.290Z,11.63
2022-10-02T19:54:27.988Z,11.97
2022-10-02T19:57:03.569Z,9.90
2022-10-02T19:59:42.809Z,9.97
2022-10-02T20:02:18.291Z,7.63
2022-10-02T20:04:47.615Z,7.57
2022-10-02T20:07:21.800Z,7.00
2022-10-02T20:09:56.435Z,6.53
2022-10-02T20:12:31.100Z,6.33
2022-10-02T20:15:04.823Z,5.57
2022-10-02T20:17:32.685Z,5.70
2022-10-02T20:20:07.856Z,6.63
2022-10-02T20:22:40.315Z,6.30
2022-10-02T20:25:15.245Z,5.90
2022-10-02T20:27:52.061Z,5.90
2022-10-02T20:30:23.813Z,6.77
2022-10-02T20:33:00.401Z,7.10
2022-10-02T20:35:35.070Z,10.00
2022-10-02T20:38:07.968Z,9.83
2022-10-02T20:40:39.052Z,9.70
2022-10-02T20:43:15.844Z,10.80
2022-10-02T20:45:49.696Z,10.60
2022-10-02T20:49:09.199Z,10.40
2022-10-02T20:52:08.404Z,9.10
2022-10-02T20:54:46.281Z,8.63
2022-10-02T20:58:01.919Z,8.33
2022-10-02T21:00:37.164Z,8.80
2022-10-02T21:03:27.267Z,7.57
2022-10-02T21:06:35.905Z,7.60
2022-10-02T21:09:36.668Z,7.23
2022-10-02T21:12:46.611Z,14.17
2022-10-02T21:15:45.039Z,12.17
2022-10-02T21:18:54.113Z,27.27
2022-10-02T21:22:01.799Z,41.10
2022-10-02T21:25:06.466Z,30.70
2022-10-02T21:28:06.562Z,19.00
2022-10-02T21:30:42.545Z,16.70
2022-10-02T21:33:16.175Z,13.07
2022-10-02T21:35:56.443Z,17.97
2022-10-02T21:38:58.477Z,16.77
2022-10-02T21:42:18.002Z,16.77
2022-10-02T21:45:28.956Z,16.40
2022-10-02T21:48:45.265Z,16.67
2022-10-02T21:51:49.677Z,17.03
2022-10-02T21:54:51.620Z,12.87
2022-10-02T21:57:55.820Z,13.00
2022-10-02T22:00:26.720Z,16.83
2022-10-02T22:03:35.998Z,18.13
2022-10-02T22:06:39.184Z,17.20
2022-10-02T22:09:29.510Z,14.03
2022-10-02T22:12:17.755Z,17.97
2022-10-02T22:14:52.785Z,19.13
2022-10-02T22:17:33.687Z,16.63
2022-10-02T22:20:23.337Z,15.73
2022-10-02T22:23:09.541Z,17.07
2022-10-02T22:26:02.992Z,17.47
2022-10-02T22:28:44.482Z,16.23
2022-10-02T22:32:31.697Z,14.10
2022-10-02T22:35:16.504Z,10.00
2022-10-02T22:38:12.737Z,8.20
2022-10-02T22:40:52.997Z,8.20
2022-10-02T22:46:41.466Z,6.53
2022-10-02T22:49:21.981Z,6.83
2022-10-02T22:52:00.259Z,6.30
2022-10-02T22:54:47.966Z,6.80
2022-10-02T22:57:40.786Z,7.63
2022-10-02T23:00:18.455Z,8.40
2022-10-02T23:02:57.401Z,8.27
2022-10-02T23:05:38.972Z,10.50
2022-10-02T23:08:33.462Z,11.93
2022-10-02T23:11:18.468Z,9.73
2022-10-02T23:14:10.149Z,9.63
2022-10-02T23:16:45.575Z,9.90
2022-10-02T23:19:28.044Z,8.93
2022-10-02T23:22:06.255Z,10.30
2022-10-02T23:24:40.077Z,8.83
2022-10-02T23:27:24.416Z,9.27
2022-10-02T23:30:01.561Z,9.17
2022-10-02T23:32:39.694Z,8.23
2022-10-02T23:35:15.228Z,8.37
2022-10-02T23:37:52.182Z,8.30
2022-10-02T23:40:44.274Z,8.77
2022-10-02T23:43:20.677Z,8.33
2022-10-02T23:45:55.863Z,8.63
2022-10-02T23:48:25.567Z,8.37
2022-10-02T23:51:02.085Z,7.93
2022-10-02T23:53:52.667Z,8.10
2022-10-02T23:56:39.607Z,7.37
2022-10-02T23:59:29.330Z,7.97
